createdAt,value
2019-05-03T00:04:25.256Z,64.80
2019-05-03T00:09:28.090Z,64.50
2019-05-03T00:14:32.507Z,64.30
2019-05-03T00:19:35.448Z,64.80
2019-05-03T00:24:38.252Z,64.30
2019-05-03T00:29:41.789Z,65.60
2019-05-03T00:34:46.559Z,65.20
2019-05-03T00:39:49.507Z,65.40
2019-05-03T00:44:52.307Z,66.00
2019-05-03T00:49:55.095Z,66.10
2019-05-03T00:54:57.935Z,66.20
2019-05-03T01:00:02.039Z,65.70
2019-05-03T01:05:06.262Z,65.80
2019-05-03T01:10:11.726Z,65.70
2019-05-03T01:15:14.600Z,65.70
2019-05-03T01:20:17.370Z,65.50
2019-05-03T01:25:32.028Z,65.50
2019-05-03T01:30:27.266Z,66.10
2019-05-03T01:35:32.220Z,65.80
2019-05-03T01:40:34.891Z,65.40
2019-05-03T01:45:37.683Z,64.80
2019-05-03T01:50:42.490Z,64.80
2019-05-03T01:55:46.557Z,64.60
2019-05-03T02:00:51.853Z,65.00
2019-05-03T02:05:54.572Z,65.20
2019-05-03T02:10:57.499Z,65.10
2019-05-03T02:16:02.134Z,65.40
2019-05-03T02:21:04.744Z,65.30
2019-05-03T02:26:07.893Z,65.50
2019-05-03T02:31:13.430Z,65.20
2019-05-03T02:36:15.202Z,65.80
2019-05-03T02:41:17.965Z,65.30
2019-05-03T02:46:20.754Z,65.60
2019-05-03T02:51:25.897Z,65.60
2019-05-03T02:56:27.969Z,65.20
2019-05-03T03:01:30.817Z,66.10
2019-05-03T03:06:36.721Z,66.60
2019-05-03T03:11:40.947Z,66.30
2019-05-03T03:22:00.729Z,65.50
2019-05-03T03:27:05.426Z,65.90
2019-05-03T03:37:27.457Z,66.40
2019-05-03T03:42:31.968Z,66.70
2019-05-03T03:47:37.171Z,66.80
2019-05-03T03:52:41.589Z,66.80
2019-05-03T03:57:46.758Z,66.80
2019-05-03T04:02:49.515Z,67.30
2019-05-03T04:07:56.137Z,67.30
2019-05-03T04:13:05.368Z,67.00
2019-05-03T04:18:07.831Z,66.70
2019-05-03T04:23:10.778Z,66.40
2019-05-03T04:28:15.961Z,66.10
2019-05-03T04:33:18.201Z,65.80
2019-05-03T04:38:20.999Z,66.10
2019-05-03T04:43:26.334Z,66.30
2019-05-03T04:48:28.476Z,66.60
2019-05-03T04:53:31.251Z,66.10
2019-05-03T04:58:36.380Z,66.30
2019-05-03T05:03:38.441Z,65.70
2019-05-03T05:08:41.183Z,65.50
2019-05-03T05:13:45.756Z,65.90
2019-05-03T05:18:48.808Z,66.80
2019-05-03T05:23:51.543Z,66.60
2019-05-03T05:28:54.950Z,65.80
2019-05-03T05:34:17.148Z,65.50
2019-05-03T05:39:19.819Z,65.40
2019-05-03T05:44:24.644Z,65.50
2019-05-03T05:49:26.941Z,66.10
2019-05-03T05:54:29.984Z,65.90
2019-05-03T05:59:34.946Z,65.90
2019-05-03T06:04:37.103Z,65.60
2019-05-03T06:09:39.770Z,65.60
2019-05-03T06:14:42.501Z,65.90
2019-05-03T06:19:45.155Z,65.00
2019-05-03T06:24:47.816Z,65.40
2019-05-03T06:29:50.476Z,65.40
2019-05-03T06:34:54.617Z,65.00
2019-05-03T06:39:57.836Z,64.40
2019-05-03T06:45:08.225Z,64.90
2019-05-03T06:50:06.459Z,64.50
2019-05-03T06:55:10.907Z,64.50
2019-05-03T07:00:15.430Z,64.10
2019-05-03T07:05:18.251Z,63.50
2019-05-03T07:10:20.978Z,64.00
2019-05-03T07:15:25.135Z,64.40
2019-05-03T07:20:28.176Z,63.10
2019-05-03T07:25:30.913Z,62.90
2019-05-03T07:30:35.198Z,64.00
2019-05-03T07:35:38.036Z,62.60
2019-05-03T07:40:40.773Z,62.70
2019-05-03T07:45:44.659Z,62.30
2019-05-03T07:50:47.579Z,60.90
2019-05-03T07:55:50.243Z,60.70
2019-05-03T08:01:05.550Z,60.90
2019-05-03T08:05:57.427Z,61.50
2019-05-03T08:11:00.225Z,60.00
2019-05-03T08:16:02.971Z,59.80
2019-05-03T08:21:06.122Z,59.80
2019-05-03T08:26:09.423Z,57.90
2019-05-03T08:31:12.619Z,58.10
2019-05-03T08:36:15.744Z,58.40
2019-05-03T08:41:18.536Z,59.70
2019-05-03T08:46:21.272Z,57.30
2019-05-03T08:51:24.973Z,57.20
2019-05-03T08:56:27.948Z,56.10
2019-05-03T09:01:30.667Z,55.70
2019-05-03T09:06:35.465Z,54.90
2019-05-03T09:11:38.898Z,52.90
2019-05-03T09:16:41.575Z,53.10
2019-05-03T09:21:45.394Z,52.80
2019-05-03T09:26:48.530Z,53.40
2019-05-03T09:31:51.197Z,50.70
2019-05-03T09:36:55.323Z,51.10
2019-05-03T09:41:58.134Z,49.60
2019-05-03T09:47:00.797Z,50.00
2019-05-03T09:52:08.062Z,49.40
2019-05-03T09:57:08.158Z,50.10
2019-05-03T10:02:11.200Z,50.60
2019-05-03T10:07:15.349Z,51.70
2019-05-03T10:12:18.199Z,51.10
2019-05-03T10:17:20.876Z,49.80
2019-05-03T10:22:27.544Z,48.80
2019-05-03T10:27:31.757Z,49.40
2019-05-03T10:32:35.513Z,50.60
2019-05-03T10:37:38.381Z,49.10
2019-05-03T10:42:41.052Z,49.90
2019-05-03T10:47:45.557Z,48.60
2019-05-03T10:52:49.658Z,48.30
2019-05-03T10:57:54.250Z,48.40
2019-05-03T11:02:56.745Z,46.90
2019-05-03T11:07:59.477Z,47.80
2019-05-03T11:13:02.144Z,48.20
2019-05-03T11:18:05.631Z,48.40
2019-05-03T11:23:08.631Z,47.30
2019-05-03T11:28:11.358Z,48.70
2019-05-03T11:33:15.269Z,48.80
2019-05-03T11:38:18.345Z,47.80
2019-05-03T11:43:21.118Z,49.80
2019-05-03T11:48:25.259Z,47.20
2019-05-03T11:53:28.099Z,46.90
2019-05-03T11:58:30.829Z,46.60
2019-05-03T12:03:35.388Z,46.30
2019-05-03T12:08:38.052Z,45.00
2019-05-03T12:13:40.719Z,46.50
2019-05-03T12:18:52.215Z,44.90
2019-05-03T12:23:48.476Z,44.40
2019-05-03T12:28:51.599Z,43.50
2019-05-03T12:33:55.043Z,46.00
2019-05-03T12:38:58.246Z,44.80
2019-05-03T12:44:01.355Z,44.20
2019-05-03T12:49:05.266Z,45.00
2019-05-03T12:54:08.019Z,45.00
2019-05-03T12:59:10.683Z,46.00
2019-05-03T13:04:15.176Z,45.60
2019-05-03T13:09:17.826Z,46.20
2019-05-03T13:14:20.632Z,45.70
2019-05-03T13:19:23.280Z,44.30
2019-05-03T13:24:26.420Z,43.90
2019-05-03T13:29:29.176Z,44.60
2019-05-03T13:34:31.905Z,43.40
2019-05-03T13:39:35.903Z,42.80
2019-05-03T13:44:38.872Z,43.60
2019-05-03T13:49:41.590Z,44.80
2019-05-03T13:54:45.987Z,42.00
2019-05-03T13:59:48.773Z,43.00
2019-05-03T14:04:52.873Z,42.00
2019-05-03T14:09:55.819Z,43.20
2019-05-03T14:14:58.498Z,43.40
2019-05-03T14:20:01.218Z,43.80
2019-05-03T14:25:05.501Z,43.00
2019-05-03T14:30:09.070Z,44.60
2019-05-03T14:35:12.032Z,43.80
2019-05-03T14:40:15.366Z,44.20
2019-05-03T14:45:18.100Z,45.00
2019-05-03T14:50:20.752Z,45.20
2019-05-03T14:55:25.130Z,46.10
2019-05-03T15:00:27.983Z,45.90
2019-05-03T15:05:30.697Z,44.60
2019-05-03T15:10:35.040Z,44.60
2019-05-03T15:15:37.873Z,46.10
2019-05-03T15:20:41.317Z,48.10
2019-05-03T15:25:45.241Z,48.40
2019-05-03T15:30:48.016Z,49.60
2019-05-03T15:35:50.706Z,49.40
2019-05-03T15:40:54.761Z,48.90
2019-05-03T15:45:57.709Z,47.90
2019-05-03T15:51:00.354Z,47.00
2019-05-03T15:56:06.593Z,45.50
2019-05-03T16:01:09.318Z,43.60
2019-05-03T16:06:12.049Z,41.40
2019-05-03T16:11:14.936Z,41.70
2019-05-03T16:16:17.753Z,43.20
2019-05-03T16:21:20.401Z,44.50
2019-05-03T16:26:24.963Z,45.40
2019-05-03T16:31:27.801Z,45.60
2019-05-03T16:36:30.466Z,46.90
2019-05-03T16:41:41.036Z,47.30
2019-05-03T16:46:44.930Z,47.60
2019-05-03T16:51:47.702Z,47.30
2019-05-03T16:56:50.372Z,46.90
2019-05-03T17:01:55.096Z,46.10
2019-05-03T17:06:57.946Z,46.50
2019-05-03T17:12:00.947Z,46.60
2019-05-03T17:17:04.683Z,47.60
2019-05-03T17:22:08.065Z,47.70
2019-05-03T17:27:11.069Z,48.60
2019-05-03T17:32:15.315Z,48.30
2019-05-03T17:37:18.245Z,49.80
2019-05-03T17:42:20.893Z,49.40
2019-05-03T17:47:25.496Z,49.20
2019-05-03T17:52:27.944Z,49.40
2019-05-03T17:57:30.674Z,50.00
2019-05-03T18:02:33.343Z,51.30
2019-05-03T18:07:35.994Z,50.80
2019-05-03T18:12:38.678Z,51.60
2019-05-03T18:17:42.220Z,51.40
2019-05-03T18:22:44.886Z,51.10
2019-05-03T18:27:47.641Z,51.40
2019-05-03T18:32:50.297Z,51.20
2019-05-03T18:37:54.686Z,51.00
2019-05-03T18:42:57.706Z,51.50
2019-05-03T18:48:00.421Z,51.50
2019-05-03T18:53:04.639Z,51.20
2019-05-03T18:58:07.517Z,51.60
2019-05-03T19:03:10.608Z,52.50
2019-05-03T19:08:15.205Z,52.70
2019-05-03T19:13:17.664Z,52.10
2019-05-03T19:18:20.401Z,52.20
2019-05-03T19:23:24.846Z,52.30
2019-05-03T19:28:27.720Z,52.30
2019-05-03T19:33:30.652Z,52.90
2019-05-03T19:38:35.054Z,53.20
2019-05-03T19:43:37.721Z,53.70
2019-05-03T19:48:40.398Z,54.30
2019-05-03T19:53:44.259Z,54.50
2019-05-03T19:58:47.455Z,54.70
2019-05-03T20:03:50.218Z,55.30
2019-05-03T20:08:52.950Z,55.30
2019-05-03T20:13:55.606Z,55.30
2019-05-03T20:18:58.332Z,56.10
2019-05-03T20:24:01.005Z,56.10
2019-05-03T20:29:03.774Z,56.20
2019-05-03T20:34:06.517Z,56.20
2019-05-03T20:39:09.177Z,55.80
2019-05-03T20:44:11.859Z,56.40
2019-05-03T20:49:14.981Z,56.50
2019-05-03T20:54:17.839Z,56.80
2019-05-03T20:59:20.500Z,56.90
2019-05-03T21:04:24.696Z,57.40
2019-05-03T21:09:27.505Z,57.80
2019-05-03T21:14:30.240Z,59.20
2019-05-03T21:19:32.898Z,59.30
2019-05-03T21:24:35.558Z,59.10
2019-05-03T21:29:38.226Z,60.30
2019-05-03T21:34:40.974Z,60.60
2019-05-03T21:39:45.393Z,60.10
2019-05-03T21:44:48.190Z,60.70
2019-05-03T21:49:50.838Z,59.80
2019-05-03T21:54:54.787Z,60.00
2019-05-03T21:59:57.876Z,60.10
2019-05-03T22:05:00.549Z,61.30
2019-05-03T22:10:05.025Z,59.90
2019-05-03T22:15:08.245Z,60.30
2019-05-03T22:20:11.125Z,60.30
2019-05-03T22:25:15.109Z,61.70
2019-05-03T22:30:17.848Z,62.10
2019-05-03T22:35:20.888Z,63.90
2019-05-03T22:40:25.191Z,63.90
2019-05-03T22:45:28.336Z,64.20
2019-05-03T22:50:30.987Z,64.90
2019-05-03T22:55:33.903Z,64.90
2019-05-03T23:00:36.562Z,64.70
2019-05-03T23:05:39.224Z,64.30
2019-05-03T23:10:41.872Z,64.20
2019-05-03T23:15:44.863Z,64.50
2019-05-03T23:20:47.513Z,65.90
2019-05-03T23:25:50.181Z,65.60
2019-05-03T23:30:54.773Z,66.20
2019-05-03T23:35:57.271Z,64.70
2019-05-03T23:40:59.990Z,65.00
2019-05-03T23:46:02.774Z,64.80
2019-05-03T23:51:05.440Z,65.10
2019-05-03T23:56:08.166Z,65.50
